createdAt,value
2023-01-01T00:02:03.431Z,22.44
2023-01-01T00:04:30.173Z,22.61
2023-01-01T00:06:56.706Z,22.75
2023-01-01T00:09:41.799Z,21.96
2023-01-01T00:12:08.407Z,22.35
2023-01-01T00:14:34.899Z,22.13
2023-01-01T00:17:02.035Z,22.42
2023-01-01T00:19:28.593Z,21.87
2023-01-01T00:21:55.351Z,22.53
2023-01-01T00:24:22.621Z,22.51
2023-01-01T00:26:49.433Z,22.72
2023-01-01T00:29:16.321Z,23.08
2023-01-01T00:31:42.857Z,22.69
2023-01-01T00:34:10.147Z,22.25
2023-01-01T00:36:36.658Z,22.32
2023-01-01T00:39:03.745Z,22.41
2023-01-01T00:41:30.544Z,22.92
2023-01-01T00:43:57.032Z,22.37
2023-01-01T00:46:24.387Z,22.78
2023-01-01T00:48:50.943Z,22.61
2023-01-01T00:51:17.514Z,22.44
2023-01-01T00:53:44.017Z,22.05
2023-01-01T00:56:10.560Z,22.50
2023-01-01T00:58:37.081Z,22.57
2023-01-01T01:01:03.964Z,22.30
2023-01-01T01:03:30.808Z,22.33
2023-01-01T01:06:09.738Z,22.58
2023-01-01T01:08:38.651Z,22.54
2023-01-01T01:11:19.775Z,22.33
2023-01-01T01:13:49.230Z,22.84
2023-01-01T01:16:21.697Z,22.80
2023-01-01T01:18:51.835Z,22.81
2023-01-01T01:21:20.710Z,22.67
2023-01-01T01:23:48.535Z,22.31
2023-01-01T01:26:22.387Z,22.83
2023-01-01T01:28:50.315Z,22.53
2023-01-01T01:31:18.850Z,22.00
2023-01-01T01:33:46.601Z,22.22
2023-01-01T01:36:14.488Z,22.84
2023-01-01T01:38:41.895Z,22.58
2023-01-01T01:41:08.686Z,22.20
2023-01-01T01:43:35.124Z,22.29
2023-01-01T01:46:10.669Z,22.61
2023-01-01T01:48:40.959Z,22.63
2023-01-01T01:51:07.772Z,23.51
2023-01-01T01:53:39.829Z,22.74
2023-01-01T01:56:12.697Z,23.48
2023-01-01T01:58:39.396Z,23.11
2023-01-01T02:01:06.409Z,23.25
2023-01-01T02:03:43.467Z,22.83
2023-01-01T02:06:10.945Z,22.75
2023-01-01T02:08:37.740Z,23.07
2023-01-01T02:11:04.385Z,22.56
2023-01-01T02:13:31.158Z,22.71
2023-01-01T02:16:06.457Z,23.01
2023-01-01T02:18:42.929Z,22.98
2023-01-01T02:21:20.264Z,22.99
2023-01-01T02:24:17.122Z,22.85
2023-01-01T02:26:51.584Z,22.93
2023-01-01T02:29:38.023Z,23.20
2023-01-01T02:32:17.850Z,23.27
2023-01-01T02:34:58.842Z,22.96
2023-01-01T02:37:28.359Z,23.14
2023-01-01T02:39:58.560Z,23.45
2023-01-01T02:42:28.674Z,22.95
2023-01-01T02:44:58.108Z,23.04
2023-01-01T02:47:24.745Z,22.66
2023-01-01T02:50:33.123Z,22.86
2023-01-01T02:53:11.348Z,22.89
2023-01-01T02:55:56.519Z,22.92
2023-01-01T02:59:03.808Z,22.55
2023-01-01T03:01:44.506Z,22.82
2023-01-01T03:04:26.265Z,22.89
2023-01-01T03:06:59.104Z,22.87
2023-01-01T03:09:47.630Z,23.10
2023-01-01T03:12:25.200Z,23.22
2023-01-01T03:15:05.910Z,22.67
2023-01-01T03:17:45.924Z,23.00
2023-01-01T03:20:19.269Z,23.33
2023-01-01T03:22:49.582Z,23.51
2023-01-01T03:25:25.719Z,23.47
2023-01-01T03:27:59.541Z,23.55
2023-01-01T03:30:26.769Z,23.52
2023-01-01T03:33:03.313Z,23.55
2023-01-01T03:35:50.306Z,23.49
2023-01-01T03:38:30.689Z,23.43
2023-01-01T03:41:04.614Z,23.10
2023-01-01T03:43:49.527Z,22.96
2023-01-01T03:46:20.492Z,23.04
2023-01-01T03:49:02.601Z,22.52
2023-01-01T03:51:53.648Z,23.07
2023-01-01T03:54:28.634Z,22.62
2023-01-01T03:57:12.587Z,22.80
2023-01-01T03:59:57.809Z,23.30
2023-01-01T04:02:31.834Z,23.22
2023-01-01T04:05:01.294Z,23.09
2023-01-01T04:07:31.246Z,22.95
2023-01-01T04:10:01.036Z,22.67
2023-01-01T04:12:29.634Z,22.86
2023-01-01T04:14:56.557Z,22.75
2023-01-01T04:17:23.134Z,23.04
2023-01-01T04:19:54.819Z,23.42
2023-01-01T04:22:23.885Z,23.22
2023-01-01T04:24:50.558Z,23.54
2023-01-01T04:27:17.150Z,23.44
2023-01-01T04:29:44.034Z,23.33
2023-01-01T04:32:10.554Z,23.10
2023-01-01T04:34:37.095Z,23.12
2023-01-01T04:37:08.229Z,22.83
2023-01-01T04:39:37.852Z,22.35
2023-01-01T04:42:04.375Z,22.69
2023-01-01T04:44:31.277Z,22.59
2023-01-01T04:47:00.206Z,22.48
2023-01-01T04:49:27.576Z,22.47
2023-01-01T04:51:54.865Z,22.45
2023-01-01T04:54:21.393Z,22.14
2023-01-01T04:56:48.040Z,22.46
2023-01-01T04:59:14.541Z,22.61
2023-01-01T05:01:41.359Z,22.42
2023-01-01T05:04:07.998Z,22.36
2023-01-01T05:06:34.522Z,22.40
2023-01-01T05:09:03.890Z,22.46
2023-01-01T05:11:31.168Z,22.45
2023-01-01T05:14:01.348Z,22.46
2023-01-01T05:16:33.196Z,22.51
2023-01-01T05:18:59.846Z,21.94
2023-01-01T05:21:32.203Z,22.69
2023-01-01T05:24:01.771Z,22.70
2023-01-01T05:26:32.044Z,22.90
2023-01-01T05:29:00.288Z,22.62
2023-01-01T05:31:30.230Z,22.68
2023-01-01T05:36:38.848Z,22.41
2023-01-01T05:39:08.377Z,22.36
2023-01-01T05:41:36.494Z,22.21
2023-01-01T05:44:06.610Z,21.84
2023-01-01T05:46:33.654Z,21.82
2023-01-01T05:49:00.957Z,22.19
2023-01-01T05:51:29.753Z,22.07
2023-01-01T05:53:57.403Z,21.87
2023-01-01T05:56:24.660Z,21.82
2023-01-01T05:58:51.917Z,21.93
2023-01-01T06:01:27.335Z,22.35
2023-01-01T06:03:56.295Z,22.53
2023-01-01T06:06:26.879Z,22.21
2023-01-01T06:08:59.008Z,22.25
2023-01-01T06:11:26.656Z,21.86
2023-01-01T06:13:58.614Z,21.95
2023-01-01T06:16:26.957Z,21.74
2023-01-01T06:18:53.597Z,21.96
2023-01-01T06:21:23.238Z,21.97
2023-01-01T06:23:49.855Z,21.74
2023-01-01T06:26:19.531Z,21.76
2023-01-01T06:28:47.173Z,21.88
2023-01-01T06:31:16.769Z,21.31
2023-01-01T06:33:43.751Z,21.98
2023-01-01T06:36:13.002Z,21.73
2023-01-01T06:38:45.611Z,21.56
2023-01-01T06:41:20.044Z,22.08
2023-01-01T06:43:46.704Z,21.50
2023-01-01T06:46:19.537Z,22.32
2023-01-01T06:48:53.155Z,21.89
2023-01-01T06:51:22.292Z,21.99
2023-01-01T06:53:49.993Z,22.31
2023-01-01T06:56:17.952Z,22.39
2023-01-01T06:58:45.159Z,22.06
2023-01-01T07:01:23.788Z,21.83
2023-01-01T07:03:55.828Z,22.15
2023-01-01T07:06:23.949Z,22.13
2023-01-01T07:08:50.737Z,22.38
2023-01-01T07:11:17.542Z,22.00
2023-01-01T07:13:44.547Z,21.67
2023-01-01T07:16:13.285Z,21.40
2023-01-01T07:18:41.112Z,21.95
2023-01-01T07:21:28.232Z,22.01
2023-01-01T07:23:58.287Z,21.79
2023-01-01T07:26:25.954Z,22.05
2023-01-01T07:28:53.407Z,22.24
2023-01-01T07:31:20.081Z,21.99
2023-01-01T07:33:46.738Z,21.97
2023-01-01T07:36:13.445Z,21.88
2023-01-01T07:38:40.111Z,21.84
2023-01-01T07:41:07.325Z,21.54
2023-01-01T07:43:33.839Z,21.67
2023-01-01T07:46:00.566Z,21.77
2023-01-01T07:48:27.504Z,21.47
2023-01-01T07:50:54.410Z,22.08
2023-01-01T07:53:20.986Z,21.82
2023-01-01T07:55:47.978Z,21.94
2023-01-01T07:58:15.025Z,21.93
2023-01-01T08:00:45.893Z,21.58
2023-01-01T08:03:12.460Z,22.04
2023-01-01T08:05:39.398Z,21.68
2023-01-01T08:08:06.431Z,21.27
2023-01-01T08:10:33.042Z,21.20
2023-01-01T08:13:04.443Z,21.06
2023-01-01T08:15:31.506Z,21.34
2023-01-01T08:17:59.427Z,21.18
2023-01-01T08:20:27.826Z,21.68
2023-01-01T08:22:54.720Z,21.61
2023-01-01T08:25:22.098Z,22.10
2023-01-01T08:27:48.756Z,21.76
2023-01-01T08:30:16.180Z,22.09
2023-01-01T08:32:42.704Z,22.16
2023-01-01T08:35:09.664Z,21.39
2023-01-01T08:37:36.192Z,21.54
2023-01-01T08:40:03.505Z,27.99
2023-01-01T08:42:30.084Z,31.20
2023-01-01T08:44:57.201Z,22.82
2023-01-01T08:47:26.249Z,22.31
2023-01-01T08:49:53.090Z,22.25
2023-01-01T08:52:21.044Z,21.89
2023-01-01T08:54:48.372Z,22.56
2023-01-01T08:57:14.944Z,22.00
2023-01-01T08:59:41.459Z,21.68
2023-01-01T09:02:08.526Z,21.27
2023-01-01T09:04:35.319Z,21.38
2023-01-01T09:07:01.904Z,20.90
2023-01-01T09:09:31.717Z,21.52
2023-01-01T09:12:04.030Z,21.51
2023-01-01T09:14:31.537Z,20.93
2023-01-01T09:16:58.544Z,21.19
2023-01-01T09:19:25.248Z,21.36
2023-01-01T09:21:52.518Z,20.99
2023-01-01T09:24:19.046Z,21.17
2023-01-01T09:26:46.195Z,21.59
2023-01-01T09:29:12.934Z,21.42
2023-01-01T09:31:39.546Z,21.63
2023-01-01T09:34:06.092Z,21.77
2023-01-01T09:36:34.044Z,21.78
2023-01-01T09:39:02.444Z,22.24
2023-01-01T09:42:12.157Z,21.67
2023-01-01T09:44:52.381Z,21.38
2023-01-01T09:47:30.346Z,21.96
2023-01-01T09:50:02.833Z,22.24
2023-01-01T09:52:39.597Z,21.98
2023-01-01T09:55:17.206Z,22.11
2023-01-01T09:57:43.772Z,21.84
2023-01-01T10:00:19.115Z,20.92
2023-01-01T10:03:03.361Z,20.89
2023-01-01T10:05:49.073Z,21.06
2023-01-01T10:08:31.904Z,21.15
2023-01-01T10:11:04.701Z,21.57
2023-01-01T10:13:40.939Z,21.18
2023-01-01T10:16:24.332Z,21.18
2023-01-01T10:18:55.884Z,20.85
2023-01-01T10:21:43.501Z,20.98
2023-01-01T10:24:35.024Z,21.06
2023-01-01T10:27:04.564Z,21.41
2023-01-01T10:29:42.866Z,21.63
2023-01-01T10:32:20.335Z,21.56
2023-01-01T10:34:49.029Z,21.07
2023-01-01T10:37:15.787Z,20.73
2023-01-01T10:39:43.488Z,21.46
2023-01-01T10:42:14.604Z,21.04
2023-01-01T10:44:42.158Z,20.66
2023-01-01T10:47:30.919Z,20.68
2023-01-01T10:50:00.215Z,20.33
2023-01-01T10:52:35.294Z,20.90
2023-01-01T10:55:02.399Z,21.00
2023-01-01T10:57:33.025Z,21.26
2023-01-01T11:00:18.964Z,20.48
2023-01-01T11:02:45.995Z,20.56
2023-01-01T11:05:21.030Z,21.27
2023-01-01T11:07:48.523Z,20.85
2023-01-01T11:10:19.056Z,20.52
2023-01-01T11:13:04.879Z,20.84
2023-01-01T11:15:40.309Z,20.62
2023-01-01T11:18:14.084Z,20.99
2023-01-01T11:20:41.735Z,21.02
2023-01-01T11:23:20.571Z,20.57
2023-01-01T11:26:02.587Z,21.21
2023-01-01T11:28:31.472Z,20.72
2023-01-01T11:31:11.010Z,21.15
2023-01-01T11:33:55.233Z,20.89
2023-01-01T11:36:33.350Z,21.13
2023-01-01T11:39:28.781Z,21.20
2023-01-01T11:41:57.321Z,20.68
2023-01-01T11:44:37.987Z,21.01
2023-01-01T11:47:06.870Z,20.99
2023-01-01T11:49:34.393Z,21.08
2023-01-01T11:52:01.153Z,21.16
2023-01-01T11:54:36.206Z,20.72
2023-01-01T11:57:20.995Z,21.10
2023-01-01T12:00:03.438Z,21.69
2023-01-01T12:02:47.573Z,21.34
2023-01-01T12:05:46.602Z,21.38
2023-01-01T12:08:21.189Z,21.32
2023-01-01T12:11:03.593Z,20.85
2023-01-01T12:13:37.667Z,21.04
2023-01-01T12:16:09.896Z,21.39
2023-01-01T12:18:48.741Z,21.70
2023-01-01T12:21:24.981Z,21.52
2023-01-01T12:23:51.817Z,21.39
2023-01-01T12:26:24.314Z,21.54
2023-01-01T12:29:12.261Z,21.47
2023-01-01T12:32:00.392Z,21.29
2023-01-01T12:34:38.261Z,21.26
2023-01-01T12:37:37.059Z,20.90
2023-01-01T12:40:29.414Z,21.31
2023-01-01T12:43:16.572Z,21.37
2023-01-01T12:45:51.948Z,21.30
2023-01-01T12:48:18.436Z,21.23
2023-01-01T12:50:58.524Z,21.06
2023-01-01T12:53:47.197Z,21.78
2023-01-01T12:56:23.330Z,20.86
2023-01-01T12:59:00.047Z,21.28
2023-01-01T13:01:36.306Z,21.20
2023-01-01T13:04:07.760Z,21.20
2023-01-01T13:06:47.663Z,21.05
2023-01-01T13:09:19.073Z,21.26
2023-01-01T13:11:50.975Z,21.30
2023-01-01T13:14:17.529Z,21.02
2023-01-01T13:16:50.382Z,21.40
2023-01-01T13:19:31.432Z,21.60
2023-01-01T13:21:58.700Z,21.31
2023-01-01T13:24:27.035Z,21.12
2023-01-01T13:26:53.785Z,21.08
2023-01-01T13:29:20.955Z,20.95
2023-01-01T13:31:47.764Z,21.09
2023-01-01T13:34:35.866Z,21.20
2023-01-01T13:37:11.477Z,20.37
2023-01-01T13:39:57.753Z,20.79
2023-01-01T13:42:40.183Z,21.01
2023-01-01T13:46:01.126Z,21.24
2023-01-01T13:48:20.203Z,20.88
2023-01-01T13:51:33.659Z,20.52
2023-01-01T13:54:27.066Z,21.07
2023-01-01T13:57:12.315Z,20.85
2023-01-01T13:59:58.559Z,21.25
2023-01-01T14:02:33.300Z,21.43
2023-01-01T14:05:34.819Z,21.10
2023-01-01T14:08:01.651Z,20.68
2023-01-01T14:10:36.440Z,20.90
2023-01-01T14:13:05.866Z,20.58
2023-01-01T14:15:33.676Z,20.69
2023-01-01T14:18:02.719Z,20.71
2023-01-01T14:20:40.173Z,20.34
2023-01-01T14:23:14.661Z,20.54
2023-01-01T14:25:43.714Z,20.45
2023-01-01T14:28:22.159Z,20.67
2023-01-01T14:30:49.633Z,20.55
2023-01-01T14:33:28.729Z,20.56
2023-01-01T14:35:58.582Z,20.22
2023-01-01T14:38:27.549Z,20.17
2023-01-01T14:41:04.885Z,20.58
2023-01-01T14:43:31.431Z,20.75
2023-01-01T14:45:58.052Z,20.87
2023-01-01T14:48:25.078Z,20.27
2023-01-01T14:50:52.966Z,19.94
2023-01-01T14:53:23.617Z,20.51
2023-01-01T14:55:50.917Z,20.54
2023-01-01T14:58:22.019Z,20.95
2023-01-01T15:00:50.422Z,20.79
2023-01-01T15:03:22.217Z,21.11
2023-01-01T15:06:02.980Z,20.80
2023-01-01T15:08:29.601Z,21.09
2023-01-01T15:10:56.684Z,21.30
2023-01-01T15:13:26.008Z,21.43
2023-01-01T15:15:54.783Z,21.24
2023-01-01T15:18:34.911Z,20.99
2023-01-01T15:21:07.251Z,21.16
2023-01-01T15:23:34.899Z,21.12
2023-01-01T15:26:02.385Z,21.13
2023-01-01T15:28:28.929Z,21.09
2023-01-01T15:30:57.586Z,21.24
2023-01-01T15:33:24.444Z,21.07
2023-01-01T15:35:53.580Z,21.16
2023-01-01T15:38:26.592Z,21.16
2023-01-01T15:40:53.957Z,21.19
2023-01-01T15:43:26.327Z,20.57
2023-01-01T15:45:54.048Z,21.17
2023-01-01T15:48:52.940Z,21.07
2023-01-01T15:51:23.711Z,21.12
2023-01-01T15:54:04.745Z,21.28
2023-01-01T15:56:33.972Z,21.10
2023-01-01T15:59:27.490Z,20.95
2023-01-01T16:02:17.296Z,21.17
2023-01-01T16:04:48.473Z,21.36
2023-01-01T16:07:23.174Z,21.25
2023-01-01T16:09:56.975Z,21.34
2023-01-01T16:12:24.189Z,21.26
2023-01-01T16:14:51.195Z,21.02
2023-01-01T16:17:20.371Z,21.07
2023-01-01T16:19:47.707Z,21.17
2023-01-01T16:22:16.871Z,21.30
2023-01-01T16:24:45.374Z,21.25
2023-01-01T16:27:12.235Z,21.24
2023-01-01T16:29:43.187Z,21.11
2023-01-01T16:32:19.449Z,21.06
2023-01-01T16:34:46.016Z,20.88
2023-01-01T16:37:12.641Z,20.81
2023-01-01T16:39:39.805Z,20.82
2023-01-01T16:42:11.131Z,20.82
2023-01-01T16:44:41.227Z,20.56
2023-01-01T16:47:08.078Z,20.71
2023-01-01T16:49:34.604Z,20.30
2023-01-01T16:52:01.224Z,20.23
2023-01-01T16:54:27.731Z,20.25
2023-01-01T16:56:54.375Z,20.34
2023-01-01T16:59:21.738Z,20.41
2023-01-01T17:01:48.435Z,20.79
2023-01-01T17:04:15.101Z,20.77
2023-01-01T17:06:41.814Z,20.86
2023-01-01T17:09:08.362Z,20.80
2023-01-01T17:11:36.420Z,20.88
2023-01-01T17:14:02.942Z,21.00
2023-01-01T17:16:34.653Z,20.43
2023-01-01T17:19:21.123Z,20.43
2023-01-01T17:21:48.687Z,20.73
2023-01-01T17:24:17.222Z,20.58
2023-01-01T17:26:43.905Z,20.78
2023-01-01T17:29:11.027Z,20.78
2023-01-01T17:31:38.515Z,20.61
2023-01-01T17:34:05.074Z,20.52
2023-01-01T17:36:31.899Z,20.29
2023-01-01T17:38:58.574Z,20.25
2023-01-01T17:41:25.630Z,20.56
2023-01-01T17:43:52.211Z,20.77
2023-01-01T17:46:27.597Z,20.79
2023-01-01T17:48:55.833Z,20.87
2023-01-01T17:51:23.940Z,20.26
2023-01-01T17:53:50.790Z,20.67
2023-01-01T17:56:19.351Z,20.53
2023-01-01T17:58:47.107Z,20.71
2023-01-01T18:01:22.698Z,20.69
2023-01-01T18:03:57.710Z,20.65
2023-01-01T18:06:24.308Z,20.95
2023-01-01T18:08:58.677Z,20.92
2023-01-01T18:11:28.934Z,20.49
2023-01-01T18:13:56.987Z,20.57
2023-01-01T18:16:24.328Z,20.57
2023-01-01T18:18:51.422Z,20.30
2023-01-01T18:21:23.726Z,20.59
2023-01-01T18:23:52.235Z,20.47
2023-01-01T18:26:19.513Z,20.74
2023-01-01T18:29:00.736Z,20.26
2023-01-01T18:31:29.639Z,20.27
2023-01-01T18:33:57.235Z,20.31
2023-01-01T18:36:27.547Z,20.58
2023-01-01T18:39:15.019Z,20.07
2023-01-01T18:42:21.019Z,20.19
2023-01-01T18:44:48.089Z,20.14
2023-01-01T18:47:26.554Z,20.34
2023-01-01T18:50:08.012Z,20.86
2023-01-01T18:52:36.269Z,20.23
2023-01-01T18:55:10.380Z,20.68
2023-01-01T18:57:38.710Z,20.43
2023-01-01T19:00:17.260Z,20.77
2023-01-01T19:02:49.989Z,20.75
2023-01-01T19:05:34.736Z,20.75
2023-01-01T19:08:12.287Z,20.92
2023-01-01T19:10:53.653Z,20.52
2023-01-01T19:13:36.912Z,20.47
2023-01-01T19:16:12.570Z,20.72
2023-01-01T19:18:43.755Z,20.72
2023-01-01T19:21:13.362Z,20.90
2023-01-01T19:23:53.390Z,20.87
2023-01-01T19:26:25.935Z,20.52
2023-01-01T19:28:54.553Z,20.55
2023-01-01T19:31:21.348Z,20.50
2023-01-01T19:33:48.272Z,20.62
2023-01-01T19:36:15.729Z,20.92
2023-01-01T19:38:43.961Z,20.80
2023-01-01T19:41:11.138Z,20.25
2023-01-01T19:43:38.458Z,20.55
2023-01-01T19:46:05.254Z,20.84
2023-01-01T19:48:32.069Z,20.83
2023-01-01T19:50:58.643Z,20.59
2023-01-01T19:53:25.181Z,20.94
2023-01-01T19:55:51.910Z,21.05
2023-01-01T19:58:19.978Z,21.40
2023-01-01T20:00:46.713Z,21.57
2023-01-01T20:06:02.511Z,21.40
2023-01-01T20:08:30.912Z,21.19
2023-01-01T20:10:58.079Z,21.41
2023-01-01T20:13:25.099Z,21.51
2023-01-01T20:15:52.410Z,20.52
2023-01-01T20:18:19.487Z,20.50
2023-01-01T20:21:05.525Z,20.45
2023-01-01T20:23:32.181Z,20.79
2023-01-01T20:25:58.737Z,20.89
2023-01-01T20:28:44.221Z,20.68
2023-01-01T20:31:10.863Z,20.77
2023-01-01T20:33:38.344Z,20.85
2023-01-01T20:36:24.536Z,21.03
2023-01-01T20:38:51.088Z,20.67
2023-01-01T20:41:23.298Z,20.54
2023-01-01T20:43:51.120Z,20.69
2023-01-01T20:46:17.672Z,20.87
2023-01-01T20:48:45.154Z,20.65
2023-01-01T20:51:12.534Z,20.60
2023-01-01T20:53:39.534Z,20.90
2023-01-01T20:56:06.388Z,20.67
2023-01-01T20:58:33.175Z,20.71
2023-01-01T21:01:00.804Z,20.55
2023-01-01T21:03:27.491Z,20.19
2023-01-01T21:05:54.944Z,20.55
2023-01-01T21:08:21.613Z,20.36
2023-01-01T21:10:48.150Z,20.69
2023-01-01T21:13:14.712Z,20.59
2023-01-01T21:15:41.216Z,20.71
2023-01-01T21:18:11.142Z,20.48
2023-01-01T21:20:39.966Z,20.47
2023-01-01T21:23:12.783Z,20.45
2023-01-01T21:25:54.861Z,20.49
2023-01-01T21:28:21.745Z,20.29
2023-01-01T21:30:54.299Z,20.42
2023-01-01T21:33:27.960Z,20.48
2023-01-01T21:35:54.904Z,20.45
2023-01-01T21:38:29.707Z,21.04
2023-01-01T21:41:00.812Z,20.67
2023-01-01T21:43:38.385Z,21.15
2023-01-01T21:46:04.992Z,21.16
2023-01-01T21:48:36.058Z,21.01
2023-01-01T21:51:02.927Z,21.00
2023-01-01T21:53:36.749Z,21.10
2023-01-01T21:56:28.458Z,21.15
2023-01-01T21:59:20.116Z,20.74
2023-01-01T22:01:49.102Z,20.72
2023-01-01T22:04:21.113Z,20.85
2023-01-01T22:07:09.527Z,20.81
2023-01-01T22:09:46.396Z,20.98
2023-01-01T22:12:12.844Z,21.05
2023-01-01T22:14:47.729Z,21.01
2023-01-01T22:17:37.502Z,20.82
2023-01-01T22:20:20.461Z,20.77
2023-01-01T22:22:47.263Z,20.33
2023-01-01T22:25:32.696Z,20.68
2023-01-01T22:28:16.644Z,20.32
2023-01-01T22:30:44.379Z,20.40
2023-01-01T22:33:17.734Z,20.13
2023-01-01T22:35:45.076Z,19.71
2023-01-01T22:38:21.365Z,19.46
2023-01-01T22:40:50.418Z,19.41
2023-01-01T22:43:19.274Z,19.45
2023-01-01T22:45:48.297Z,19.22
2023-01-01T22:48:30.914Z,19.02
2023-01-01T22:51:01.933Z,19.17
2023-01-01T22:53:28.470Z,19.32
2023-01-01T22:55:55.379Z,19.39
2023-01-01T22:58:22.133Z,19.60
2023-01-01T23:00:49.544Z,19.37
2023-01-01T23:03:16.094Z,19.60
2023-01-01T23:05:43.834Z,19.72
2023-01-01T23:08:10.456Z,20.12
2023-01-01T23:10:37.016Z,20.39
2023-01-01T23:13:23.522Z,19.91
2023-01-01T23:16:02.657Z,19.75
2023-01-01T23:18:34.144Z,19.79
2023-01-01T23:21:03.126Z,21.49
2023-01-01T23:23:30.812Z,26.70
2023-01-01T23:25:58.786Z,27.86
2023-01-01T23:28:26.968Z,27.60
2023-01-01T23:30:54.128Z,23.39
2023-01-01T23:33:21.786Z,21.72
2023-01-01T23:35:49.351Z,20.28
2023-01-01T23:38:16.089Z,19.64
2023-01-01T23:40:42.651Z,19.52
2023-01-01T23:43:09.808Z,19.20
2023-01-01T23:45:37.373Z,19.56
2023-01-01T23:48:04.997Z,19.45
2023-01-01T23:50:32.860Z,20.11
2023-01-01T23:53:00.210Z,20.16
2023-01-01T23:55:26.737Z,19.94
2023-01-01T23:57:53.223Z,20.32
